createdAt,value
2018-11-23T00:00:26.418Z,2.40
2018-11-23T00:02:55.912Z,2.40
2018-11-23T00:05:24.722Z,2.50
2018-11-23T00:07:54.187Z,2.50
2018-11-23T00:10:24.139Z,2.50
2018-11-23T00:12:52.988Z,2.40
2018-11-23T00:15:22.902Z,2.40
2018-11-23T00:17:51.735Z,2.40
2018-11-23T00:20:21.796Z,2.50
2018-11-23T00:22:50.603Z,2.40
2018-11-23T00:25:20.493Z,2.40
2018-11-23T00:27:49.694Z,2.50
2018-11-23T00:30:20.895Z,2.50
2018-11-23T00:32:50.141Z,2.40
2018-11-23T00:35:21.443Z,2.40
2018-11-23T00:37:50.746Z,2.40
2018-11-23T00:40:20.695Z,2.40
2018-11-23T00:42:49.876Z,2.40
2018-11-23T00:45:18.672Z,2.50
2018-11-23T00:47:48.159Z,2.50
2018-11-23T00:50:18.068Z,2.40
2018-11-23T00:52:47.650Z,2.50
2018-11-23T00:55:17.559Z,2.50
2018-11-23T00:57:46.367Z,2.60
2018-11-23T01:00:17.848Z,2.70
2018-11-23T01:02:46.686Z,2.60
2018-11-23T01:05:16.800Z,2.60
2018-11-23T01:07:46.054Z,2.50
2018-11-23T01:10:16.086Z,2.60
2018-11-23T01:12:46.012Z,2.60
2018-11-23T01:15:14.847Z,2.60
2018-11-23T01:17:43.670Z,2.50
2018-11-23T01:20:15.671Z,2.50
2018-11-23T01:22:44.765Z,2.50
2018-11-23T01:25:14.510Z,2.50
2018-11-23T01:27:44.078Z,2.50
2018-11-23T01:30:23.411Z,2.50
2018-11-23T01:32:52.231Z,2.60
2018-11-23T01:35:21.032Z,2.70
2018-11-23T01:37:49.927Z,2.80
2018-11-23T01:40:20.045Z,3.00
2018-11-23T01:42:48.929Z,3.00
2018-11-23T01:45:17.823Z,2.90
2018-11-23T01:47:46.621Z,2.90
2018-11-23T01:50:18.386Z,3.00
2018-11-23T01:52:48.139Z,2.90
2018-11-23T01:55:17.683Z,2.80
2018-11-23T01:57:46.709Z,2.80
2018-11-23T02:00:18.015Z,2.70
2018-11-23T02:02:47.304Z,2.70
2018-11-23T02:05:16.130Z,2.70
2018-11-23T02:07:44.983Z,2.60
2018-11-23T02:10:14.988Z,2.70
2018-11-23T02:12:43.886Z,2.80
2018-11-23T02:15:14.281Z,2.80
2018-11-23T02:17:43.184Z,2.80
2018-11-23T02:20:12.999Z,2.80
2018-11-23T02:22:41.853Z,2.80
2018-11-23T02:25:10.715Z,2.90
2018-11-23T02:27:39.646Z,2.90
2018-11-23T02:30:11.474Z,2.90
2018-11-23T02:32:40.600Z,2.90
2018-11-23T02:35:09.440Z,2.90
2018-11-23T02:37:38.281Z,2.90
2018-11-23T02:40:07.832Z,2.90
2018-11-23T02:42:37.160Z,2.80
2018-11-23T02:45:07.985Z,2.80
2018-11-23T02:47:36.800Z,2.90
2018-11-23T02:50:05.884Z,3.10
2018-11-23T02:52:34.733Z,3.10
2018-11-23T02:55:03.556Z,3.20
2018-11-23T02:57:32.383Z,3.20
2018-11-23T03:00:01.198Z,3.20
2018-11-23T03:02:30.007Z,3.10
2018-11-23T03:04:58.825Z,3.10
2018-11-23T03:07:27.628Z,3.20
2018-11-23T03:09:56.444Z,3.20
2018-11-23T03:12:25.257Z,3.20
2018-11-23T03:14:54.085Z,3.20
2018-11-23T03:17:22.888Z,3.20
2018-11-23T03:19:51.706Z,3.30
2018-11-23T03:22:20.520Z,3.20
2018-11-23T03:24:49.344Z,3.30
2018-11-23T03:27:18.161Z,3.20
2018-11-23T03:29:46.972Z,3.10
2018-11-23T03:32:15.799Z,3.20
2018-11-23T03:34:44.616Z,3.20
2018-11-23T03:37:13.428Z,3.20
2018-11-23T03:39:42.271Z,3.10
2018-11-23T03:42:11.087Z,3.00
2018-11-23T03:44:39.911Z,2.90
2018-11-23T03:47:08.727Z,2.90
2018-11-23T03:49:37.551Z,3.00
2018-11-23T03:52:06.370Z,3.00
2018-11-23T03:54:35.196Z,3.00
2018-11-23T03:57:04.036Z,3.10
2018-11-23T03:59:32.847Z,3.10
2018-11-23T04:02:01.668Z,3.10
2018-11-23T04:04:30.509Z,3.20
2018-11-23T04:06:59.320Z,3.20
2018-11-23T04:09:28.144Z,3.00
2018-11-23T04:11:56.973Z,2.90
2018-11-23T04:14:25.877Z,2.90
2018-11-23T04:16:54.864Z,2.90
2018-11-23T04:19:23.856Z,2.90
2018-11-23T04:21:52.668Z,2.80
2018-11-23T04:24:21.488Z,2.80
2018-11-23T04:26:50.311Z,2.80
2018-11-23T04:29:19.145Z,2.80
2018-11-23T04:31:47.955Z,2.80
2018-11-23T04:34:16.779Z,2.80
2018-11-23T04:36:45.637Z,2.80
2018-11-23T04:39:14.481Z,2.80
2018-11-23T04:41:46.504Z,2.90
2018-11-23T04:44:12.103Z,2.90
2018-11-23T04:46:40.941Z,2.80
2018-11-23T04:49:09.785Z,2.90
2018-11-23T04:51:38.612Z,2.80
2018-11-23T04:54:07.455Z,2.90
2018-11-23T04:56:36.293Z,2.90
2018-11-23T04:59:05.613Z,2.90
2018-11-23T05:01:34.537Z,2.90
2018-11-23T05:04:03.352Z,2.90
2018-11-23T05:06:32.176Z,2.90
2018-11-23T05:09:00.999Z,2.80
2018-11-23T05:11:29.811Z,2.70
2018-11-23T05:13:58.624Z,2.70
2018-11-23T05:16:27.459Z,2.70
2018-11-23T05:18:56.278Z,2.70
2018-11-23T05:21:25.094Z,2.80
2018-11-23T05:23:53.947Z,2.80
2018-11-23T05:26:22.804Z,2.90
2018-11-23T05:28:51.657Z,2.90
2018-11-23T05:31:20.467Z,2.90
2018-11-23T05:33:49.276Z,3.00
2018-11-23T05:36:18.136Z,3.00
2018-11-23T05:38:47.093Z,3.00
2018-11-23T05:41:15.967Z,2.90
2018-11-23T05:43:44.831Z,2.90
2018-11-23T05:46:13.724Z,2.90
2018-11-23T05:48:42.535Z,2.90
2018-11-23T05:51:11.864Z,2.90
2018-11-23T05:53:40.695Z,3.00
2018-11-23T05:56:09.520Z,3.00
2018-11-23T05:58:38.355Z,3.00
2018-11-23T06:01:07.252Z,3.10
2018-11-23T06:03:36.355Z,3.20
2018-11-23T06:06:05.290Z,3.10
2018-11-23T06:08:34.095Z,3.00
2018-11-23T06:11:02.907Z,2.90
2018-11-23T06:13:31.709Z,2.80
2018-11-23T06:16:00.875Z,2.90
2018-11-23T06:18:29.812Z,2.80
2018-11-23T06:20:58.620Z,2.70
2018-11-23T06:23:27.427Z,2.60
2018-11-23T06:26:01.697Z,2.60
2018-11-23T06:28:30.550Z,2.70
2018-11-23T06:30:59.372Z,2.80
2018-11-23T06:33:34.603Z,2.70
2018-11-23T06:36:03.495Z,2.70
2018-11-23T06:38:32.304Z,2.60
2018-11-23T06:41:01.124Z,2.50
2018-11-23T06:43:30.171Z,2.60
2018-11-23T06:45:59.939Z,2.60
2018-11-23T06:48:28.751Z,2.70
2018-11-23T06:50:57.568Z,2.70
2018-11-23T06:53:30.105Z,2.80
2018-11-23T06:56:00.265Z,2.80
2018-11-23T06:58:30.090Z,2.80
2018-11-23T07:00:58.902Z,2.70
2018-11-23T07:03:27.927Z,2.70
2018-11-23T07:05:57.300Z,2.60
2018-11-23T07:08:26.235Z,2.60
2018-11-23T07:10:58.900Z,2.60
2018-11-23T07:13:28.413Z,2.50
2018-11-23T07:15:57.261Z,2.50
2018-11-23T07:18:26.468Z,2.50
2018-11-23T07:20:55.626Z,2.60
2018-11-23T07:23:24.693Z,2.60
2018-11-23T07:25:54.308Z,2.60
2018-11-23T07:28:23.173Z,2.70
2018-11-23T07:30:52.025Z,2.70
2018-11-23T07:33:20.894Z,2.70
2018-11-23T07:35:49.738Z,2.70
2018-11-23T07:38:18.595Z,2.60
2018-11-23T07:40:58.810Z,2.60
2018-11-23T07:43:27.755Z,2.60
2018-11-23T07:45:56.847Z,2.70
2018-11-23T07:48:27.980Z,2.70
2018-11-23T07:50:57.136Z,2.70
2018-11-23T07:53:26.050Z,2.70
2018-11-23T07:55:54.875Z,2.70
2018-11-23T07:58:23.728Z,2.80
2018-11-23T08:00:52.556Z,2.80
2018-11-23T08:03:21.363Z,2.90
2018-11-23T08:05:50.237Z,2.90
2018-11-23T08:08:19.464Z,3.00
2018-11-23T08:10:47.635Z,3.20
2018-11-23T08:13:16.428Z,3.20
2018-11-23T08:15:45.235Z,2.80
2018-11-23T08:18:14.043Z,2.70
2018-11-23T08:20:42.856Z,2.70
2018-11-23T08:23:11.685Z,2.70
2018-11-23T08:25:40.487Z,2.60
2018-11-23T08:28:09.315Z,2.70
2018-11-23T08:30:38.114Z,2.70
2018-11-23T08:33:06.931Z,2.70
2018-11-23T08:35:35.744Z,2.70
2018-11-23T08:38:04.692Z,2.80
2018-11-23T08:40:33.501Z,2.90
2018-11-23T08:43:02.382Z,2.90
2018-11-23T08:45:31.134Z,2.90
2018-11-23T08:47:59.986Z,2.90
2018-11-23T08:50:29.932Z,3.00
2018-11-23T08:52:58.841Z,2.80
2018-11-23T08:55:28.068Z,2.80
2018-11-23T08:57:56.879Z,2.80
2018-11-23T09:00:26.832Z,2.90
2018-11-23T09:02:57.956Z,2.80
2018-11-23T09:05:26.788Z,2.80
2018-11-23T09:07:56.297Z,2.90
2018-11-23T09:10:26.564Z,2.80
2018-11-23T09:12:57.823Z,2.80
2018-11-23T09:15:26.648Z,2.70
2018-11-23T09:17:55.496Z,2.80
2018-11-23T09:20:24.303Z,2.90
2018-11-23T09:22:53.095Z,2.90
2018-11-23T09:25:22.747Z,2.70
2018-11-23T09:27:51.647Z,2.70
2018-11-23T09:30:23.640Z,2.70
2018-11-23T09:32:53.224Z,2.60
2018-11-23T09:35:22.090Z,2.60
2018-11-23T09:37:51.200Z,2.80
2018-11-23T09:40:27.705Z,2.90
2018-11-23T09:42:56.809Z,2.80
2018-11-23T09:45:27.128Z,2.80
2018-11-23T09:47:57.540Z,2.60
2018-11-23T09:50:26.911Z,2.60
2018-11-23T09:52:56.931Z,2.70
2018-11-23T09:55:26.595Z,2.60
2018-11-23T09:57:55.398Z,2.70
2018-11-23T10:00:25.563Z,2.90
2018-11-23T10:02:55.322Z,3.00
2018-11-23T10:05:24.957Z,3.20
2018-11-23T10:07:55.292Z,3.20
2018-11-23T10:10:24.639Z,3.20
2018-11-23T10:12:53.475Z,3.30
2018-11-23T10:15:23.367Z,3.30
2018-11-23T10:17:52.207Z,3.20
2018-11-23T10:20:22.443Z,3.20
2018-11-23T10:22:51.244Z,3.10
2018-11-23T10:25:21.451Z,3.00
2018-11-23T10:27:50.296Z,3.10
2018-11-23T10:30:21.286Z,3.30
2018-11-23T10:32:51.159Z,3.40
2018-11-23T10:35:20.063Z,3.30
2018-11-23T10:37:50.213Z,3.20
2018-11-23T10:40:20.508Z,3.20
2018-11-23T10:42:49.436Z,3.20
2018-11-23T10:45:20.155Z,3.10
2018-11-23T10:47:49.515Z,3.20
2018-11-23T10:50:20.665Z,2.90
2018-11-23T10:52:49.555Z,3.10
2018-11-23T10:55:20.087Z,3.20
2018-11-23T10:57:49.031Z,3.10
2018-11-23T11:00:23.529Z,3.10
2018-11-23T11:02:58.960Z,3.20
2018-11-23T11:05:34.981Z,3.10
2018-11-23T11:08:04.555Z,3.10
2018-11-23T11:10:33.449Z,3.00
2018-11-23T11:13:02.271Z,3.10
2018-11-23T11:15:31.131Z,3.20
2018-11-23T11:17:59.936Z,3.30
2018-11-23T11:20:29.819Z,3.40
2018-11-23T11:22:59.736Z,3.50
2018-11-23T11:25:28.645Z,3.50
2018-11-23T11:27:57.450Z,3.20
2018-11-23T11:30:26.261Z,3.00
2018-11-23T11:32:55.067Z,3.00
2018-11-23T11:35:23.884Z,3.00
2018-11-23T11:37:52.679Z,3.10
2018-11-23T11:40:21.484Z,3.10
2018-11-23T11:42:50.319Z,2.90
2018-11-23T11:45:19.287Z,2.80
2018-11-23T11:47:48.435Z,2.90
2018-11-23T11:50:17.236Z,3.10
2018-11-23T11:52:47.442Z,2.80
2018-11-23T11:55:17.691Z,2.90
2018-11-23T11:57:47.240Z,2.80
2018-11-23T12:00:18.320Z,3.00
2018-11-23T12:02:47.687Z,2.90
2018-11-23T12:05:16.607Z,2.80
2018-11-23T12:07:45.387Z,2.80
2018-11-23T12:10:20.099Z,2.70
2018-11-23T12:12:49.101Z,2.60
2018-11-23T12:15:17.924Z,2.60
2018-11-23T12:17:46.731Z,2.60
2018-11-23T12:20:17.914Z,2.60
2018-11-23T12:22:47.111Z,2.50
2018-11-23T12:25:16.093Z,2.50
2018-11-23T12:27:44.903Z,2.70
2018-11-23T12:30:16.387Z,2.80
2018-11-23T12:32:46.128Z,2.80
2018-11-23T12:35:15.804Z,2.80
2018-11-23T12:37:45.111Z,2.70
2018-11-23T12:40:15.101Z,2.70
2018-11-23T12:42:44.507Z,2.60
2018-11-23T12:45:14.759Z,2.60
2018-11-23T12:47:43.591Z,2.60
2018-11-23T12:50:14.247Z,2.70
2018-11-23T12:52:43.076Z,2.80
2018-11-23T12:55:12.524Z,2.90
2018-11-23T12:57:41.782Z,2.80
2018-11-23T13:00:21.569Z,3.20
2018-11-23T13:02:51.764Z,2.90
2018-11-23T13:05:21.791Z,2.90
2018-11-23T13:07:51.414Z,2.90
2018-11-23T13:10:21.888Z,2.80
2018-11-23T13:12:51.170Z,2.80
2018-11-23T13:15:19.938Z,2.70
2018-11-23T13:17:48.751Z,2.60
2018-11-23T13:20:17.599Z,2.60
2018-11-23T13:22:46.471Z,2.60
2018-11-23T13:25:17.129Z,2.40
2018-11-23T13:27:46.964Z,2.40
2018-11-23T13:30:24.834Z,2.60
2018-11-23T13:32:53.668Z,2.70
2018-11-23T13:35:22.515Z,2.70
2018-11-23T13:37:53.248Z,2.60
2018-11-23T13:40:23.411Z,2.80
2018-11-23T13:42:52.832Z,2.90
2018-11-23T13:45:22.891Z,2.90
2018-11-23T13:47:51.736Z,2.90
2018-11-23T13:50:21.883Z,2.80
2018-11-23T13:52:51.859Z,2.60
2018-11-23T13:55:20.671Z,2.70
2018-11-23T13:57:49.490Z,2.80
2018-11-23T14:00:21.804Z,2.80
2018-11-23T14:02:50.662Z,2.90
2018-11-23T14:05:20.843Z,3.00
2018-11-23T14:07:50.944Z,3.00
2018-11-23T14:10:21.116Z,3.00
2018-11-23T14:12:50.231Z,2.90
2018-11-23T14:15:20.358Z,2.80
2018-11-23T14:17:49.997Z,2.80
2018-11-23T14:20:19.491Z,2.70
2018-11-23T14:22:48.335Z,2.70
2018-11-23T14:25:18.383Z,2.50
2018-11-23T14:27:47.635Z,2.40
2018-11-23T14:30:19.727Z,2.50
2018-11-23T14:32:48.836Z,2.40
2018-11-23T14:35:18.938Z,2.30
2018-11-23T14:37:48.652Z,2.40
2018-11-23T14:40:17.656Z,2.40
2018-11-23T14:42:47.375Z,2.40
2018-11-23T14:45:20.459Z,2.30
2018-11-23T14:47:49.971Z,2.30
2018-11-23T14:50:20.408Z,2.30
2018-11-23T14:52:50.222Z,2.20
2018-11-23T14:55:19.380Z,2.20
2018-11-23T14:57:48.285Z,2.20
2018-11-23T15:00:23.312Z,2.30
2018-11-23T15:02:53.312Z,2.30
2018-11-23T15:05:22.165Z,2.30
2018-11-23T15:07:51.056Z,2.20
2018-11-23T15:10:22.136Z,2.20
2018-11-23T15:12:52.217Z,2.20
2018-11-23T15:15:22.421Z,2.20
2018-11-23T15:17:51.879Z,2.20
2018-11-23T15:20:22.339Z,2.10
2018-11-23T15:22:53.011Z,2.10
2018-11-23T15:25:21.820Z,2.10
2018-11-23T15:27:50.634Z,2.20
2018-11-23T15:30:22.420Z,2.10
2018-11-23T15:32:51.254Z,2.20
2018-11-23T15:35:20.120Z,2.10
2018-11-23T15:37:48.988Z,2.20
2018-11-23T15:40:20.282Z,2.20
2018-11-23T15:42:49.931Z,2.30
2018-11-23T15:45:20.012Z,2.30
2018-11-23T15:47:48.839Z,2.30
2018-11-23T15:50:19.972Z,2.20
2018-11-23T15:52:49.008Z,2.30
2018-11-23T15:55:20.175Z,2.20
2018-11-23T15:57:49.811Z,2.20
2018-11-23T16:00:24.090Z,2.10
2018-11-23T16:02:52.958Z,2.20
2018-11-23T16:05:21.888Z,2.20
2018-11-23T16:07:51.387Z,2.20
2018-11-23T16:10:22.636Z,2.20
2018-11-23T16:12:52.615Z,2.20
2018-11-23T16:15:22.095Z,2.20
2018-11-23T16:17:51.594Z,2.10
2018-11-23T16:20:22.912Z,2.30
2018-11-23T16:22:53.117Z,2.30
2018-11-23T16:25:22.031Z,2.40
2018-11-23T16:27:52.439Z,2.30
2018-11-23T16:30:24.455Z,2.30
2018-11-23T16:32:54.490Z,2.30
2018-11-23T16:35:24.584Z,2.30
2018-11-23T16:37:54.287Z,2.30
2018-11-23T16:40:28.288Z,2.40
2018-11-23T16:42:57.895Z,2.30
2018-11-23T16:45:27.934Z,2.40
2018-11-23T16:47:57.532Z,2.40
2018-11-23T16:50:26.699Z,2.40
2018-11-23T16:52:55.772Z,2.40
2018-11-23T16:55:24.856Z,2.40
2018-11-23T16:57:55.195Z,2.40
2018-11-23T17:00:25.482Z,2.50
2018-11-23T17:02:55.235Z,2.50
2018-11-23T17:05:25.703Z,2.50
2018-11-23T17:07:54.531Z,2.50
2018-11-23T17:10:25.779Z,2.40
2018-11-23T17:12:54.672Z,2.40
2018-11-23T17:15:25.517Z,2.40
2018-11-23T17:17:54.363Z,2.40
2018-11-23T17:20:26.309Z,2.50
2018-11-23T17:22:56.236Z,2.40
2018-11-23T17:25:28.545Z,2.40
2018-11-23T17:27:58.540Z,2.50
2018-11-23T17:30:31.190Z,2.40
2018-11-23T17:33:00.365Z,2.40
2018-11-23T17:35:29.523Z,2.30
2018-11-23T17:37:58.444Z,2.30
2018-11-23T17:40:28.748Z,2.40
2018-11-23T17:42:58.504Z,2.30
2018-11-23T17:45:29.885Z,2.40
2018-11-23T17:47:58.753Z,2.30
2018-11-23T17:50:28.725Z,2.30
2018-11-23T17:52:57.801Z,2.40
2018-11-23T17:55:26.615Z,2.40
2018-11-23T17:57:55.943Z,2.30
2018-11-23T18:00:26.892Z,2.40
2018-11-23T18:02:56.298Z,2.40
2018-11-23T18:05:25.916Z,2.40
2018-11-23T18:07:54.783Z,2.40
2018-11-23T18:10:24.707Z,2.40
2018-11-23T18:12:54.155Z,2.40
2018-11-23T18:15:25.627Z,2.40
2018-11-23T18:17:55.283Z,2.40
2018-11-23T18:20:24.952Z,2.40
2018-11-23T18:22:54.577Z,2.30
2018-11-23T18:25:31.156Z,2.30
2018-11-23T18:28:00.170Z,2.30
2018-11-23T18:30:30.127Z,2.40
2018-11-23T18:32:59.241Z,2.40
2018-11-23T18:35:28.673Z,2.40
2018-11-23T18:38:00.517Z,2.40
2018-11-23T18:40:32.326Z,2.50
2018-11-23T18:42:58.356Z,2.50
2018-11-23T18:45:27.334Z,2.50
2018-11-23T18:47:56.175Z,2.50
2018-11-23T18:50:24.999Z,2.60
2018-11-23T18:52:53.831Z,2.60
2018-11-23T18:55:22.650Z,2.50
2018-11-23T18:57:51.512Z,2.50
2018-11-23T19:00:20.381Z,2.50
2018-11-23T19:02:49.203Z,2.50
2018-11-23T19:05:19.295Z,2.50
2018-11-23T19:07:48.167Z,2.50
2018-11-23T19:10:17.005Z,2.60
2018-11-23T19:12:45.814Z,2.60
2018-11-23T19:15:16.044Z,2.60
2018-11-23T19:17:45.220Z,2.60
2018-11-23T19:20:16.036Z,2.70
2018-11-23T19:22:46.016Z,2.60
2018-11-23T19:25:14.925Z,2.60
2018-11-23T19:27:45.873Z,2.60
2018-11-23T19:30:16.718Z,2.70
2018-11-23T19:32:45.524Z,2.70
2018-11-23T19:35:14.347Z,2.70
2018-11-23T19:37:43.157Z,2.70
2018-11-23T19:40:13.797Z,2.70
2018-11-23T19:42:42.945Z,2.70
2018-11-23T19:45:12.924Z,2.80
2018-11-23T19:47:41.847Z,2.80
2018-11-23T19:50:16.348Z,2.80
2018-11-23T19:52:45.270Z,2.80
2018-11-23T19:55:15.363Z,2.80
2018-11-23T19:57:44.320Z,2.80
2018-11-23T20:00:19.449Z,2.90
2018-11-23T20:02:48.280Z,2.90
2018-11-23T20:05:17.449Z,2.90
2018-11-23T20:07:48.646Z,2.90
2018-11-23T20:10:18.093Z,2.90
2018-11-23T20:12:47.931Z,3.00
2018-11-23T20:15:17.776Z,3.00
2018-11-23T20:17:46.808Z,3.00
2018-11-23T20:20:16.457Z,3.10
2018-11-23T20:22:46.327Z,3.00
2018-11-23T20:25:16.556Z,3.00
2018-11-23T20:27:46.109Z,3.10
2018-11-23T20:30:17.099Z,3.10
2018-11-23T20:32:46.275Z,3.10
2018-11-23T20:35:16.521Z,3.10
2018-11-23T20:37:45.609Z,3.20
2018-11-23T20:40:15.757Z,3.20
2018-11-23T20:42:44.890Z,3.20
2018-11-23T20:45:13.758Z,3.30
2018-11-23T20:47:42.551Z,3.30
2018-11-23T20:50:12.401Z,3.30
2018-11-23T20:52:41.201Z,3.30
2018-11-23T20:55:11.153Z,3.40
2018-11-23T20:57:39.955Z,3.30
2018-11-23T21:00:14.516Z,3.40
2018-11-23T21:02:43.625Z,3.40
2018-11-23T21:05:13.312Z,3.40
2018-11-23T21:07:42.120Z,3.40
2018-11-23T21:10:19.953Z,3.40
2018-11-23T21:12:42.549Z,3.40
2018-11-23T21:15:16.789Z,3.50
2018-11-23T21:17:45.604Z,3.50
2018-11-23T21:20:14.436Z,3.30
2018-11-23T21:22:43.298Z,3.50
2018-11-23T21:25:12.154Z,3.50
2018-11-23T21:27:41.027Z,3.50
2018-11-23T21:30:13.911Z,3.50
2018-11-23T21:32:42.776Z,3.60
2018-11-23T21:35:12.103Z,3.60
2018-11-23T21:37:40.958Z,3.60
2018-11-23T21:40:12.895Z,3.60
2018-11-23T21:42:41.767Z,3.60
2018-11-23T21:45:13.604Z,3.60
2018-11-23T21:47:42.530Z,3.60
2018-11-23T21:50:12.300Z,3.70
2018-11-23T21:52:41.115Z,3.70
2018-11-23T21:55:13.319Z,3.70
2018-11-23T21:57:42.193Z,3.70
2018-11-23T22:00:12.159Z,3.70
2018-11-23T22:02:40.975Z,3.70
2018-11-23T22:05:09.944Z,3.70
2018-11-23T22:07:38.775Z,3.80
2018-11-23T22:10:09.411Z,3.70
2018-11-23T22:12:38.234Z,3.80
2018-11-23T22:15:09.232Z,3.70
2018-11-23T22:17:38.195Z,3.80
2018-11-23T22:20:09.236Z,3.80
2018-11-23T22:22:38.057Z,3.80
2018-11-23T22:25:08.568Z,3.80
2018-11-23T22:27:37.387Z,3.90
2018-11-23T22:30:28.673Z,3.90
2018-11-23T22:32:57.621Z,3.90
2018-11-23T22:35:27.056Z,3.90
2018-11-23T22:37:55.871Z,3.90
2018-11-23T22:40:24.705Z,3.90
2018-11-23T22:42:54.830Z,3.90
2018-11-23T22:45:23.688Z,3.90
2018-11-23T22:47:52.509Z,3.90
2018-11-23T22:50:22.196Z,3.90
2018-11-23T22:52:51.241Z,3.90
2018-11-23T22:55:20.390Z,3.90
2018-11-23T22:57:49.412Z,3.90
2018-11-23T23:00:30.300Z,3.90
2018-11-23T23:02:59.205Z,4.00
2018-11-23T23:05:28.053Z,4.00
2018-11-23T23:07:57.121Z,4.00
2018-11-23T23:10:26.024Z,4.10
2018-11-23T23:12:54.815Z,4.10
2018-11-23T23:15:23.619Z,4.10
2018-11-23T23:17:52.422Z,4.10
2018-11-23T23:20:22.183Z,4.10
2018-11-23T23:22:51.016Z,4.10
2018-11-23T23:25:19.805Z,4.20
2018-11-23T23:27:48.623Z,4.20
2018-11-23T23:30:18.061Z,4.20
2018-11-23T23:32:47.535Z,4.20
2018-11-23T23:35:16.968Z,4.20
2018-11-23T23:37:45.817Z,4.20
2018-11-23T23:40:17.256Z,4.10
2018-11-23T23:42:46.530Z,4.10
2018-11-23T23:45:17.096Z,4.10
2018-11-23T23:47:45.933Z,4.20
2018-11-23T23:50:19.276Z,4.10
2018-11-23T23:52:48.183Z,4.20
2018-11-23T23:55:16.995Z,4.10
2018-11-23T23:57:46.417Z,4.20
